sensor_id;sensor_type;location;lat;lon;timestamp;P1;durP1;ratioP1;P2;durP2;ratioP2
17372;SDS011;8803;48.116;11.590;2022-10-16T00:01:19;2.10;;;1.90;;
17372;SDS011;8803;48.116;11.590;2022-10-16T00:03:25;2.20;;;2.00;;
17372;SDS011;8803;48.116;11.590;2022-10-16T00:05:31;2.77;;;1.93;;
17372;SDS011;8803;48.116;11.590;2022-10-16T00:09:46;2.90;;;1.93;;
17372;SDS011;8803;48.116;11.590;2022-10-16T00:11:50;2.07;;;1.83;;
17372;SDS011;8803;48.116;11.590;2022-10-16T00:13:55;2.17;;;1.97;;
17372;SDS011;8803;48.116;11.590;2022-10-16T00:16:09;2.00;;;1.80;;
17372;SDS011;8803;48.116;11.590;2022-10-16T00:18:14;2.13;;;1.93;;
17372;SDS011;8803;48.116;11.590;2022-10-16T00:20:29;3.07;;;1.70;;
17372;SDS011;8803;48.116;11.590;2022-10-16T00:22:45;2.03;;;1.73;;
17372;SDS011;8803;48.116;11.590;2022-10-16T00:25:00;2.20;;;2.00;;
17372;SDS011;8803;48.116;11.590;2022-10-16T00:27:04;1.83;;;1.73;;
17372;SDS011;8803;48.116;11.590;2022-10-16T00:29:16;2.40;;;1.70;;
17372;SDS011;8803;48.116;11.590;2022-10-16T00:31:22;2.40;;;2.10;;
17372;SDS011;8803;48.116;11.590;2022-10-16T00:33:26;2.50;;;2.20;;
17372;SDS011;8803;48.116;11.590;2022-10-16T00:35:39;2.50;;;2.20;;
17372;SDS011;8803;48.116;11.590;2022-10-16T00:37:43;2.13;;;1.93;;
17372;SDS011;8803;48.116;11.590;2022-10-16T00:39:55;3.07;;;1.90;;
17372;SDS011;8803;48.116;11.590;2022-10-16T00:41:59;2.27;;;2.07;;
17372;SDS011;8803;48.116;11.590;2022-10-16T00:44:04;2.13;;;1.93;;
17372;SDS011;8803;48.116;11.590;2022-10-16T00:46:27;2.37;;;1.90;;
17372;SDS011;8803;48.116;11.590;2022-10-16T00:48:41;3.13;;;2.10;;
17372;SDS011;8803;48.116;11.590;2022-10-16T00:50:47;2.70;;;2.00;;
17372;SDS011;8803;48.116;11.590;2022-10-16T00:52:51;3.00;;;2.20;;
17372;SDS011;8803;48.116;11.590;2022-10-16T00:54:56;3.10;;;2.00;;
17372;SDS011;8803;48.116;11.590;2022-10-16T00:57:12;1.60;;;1.50;;
17372;SDS011;8803;48.116;11.590;2022-10-16T00:59:18;2.27;;;1.73;;
17372;SDS011;8803;48.116;11.590;2022-10-16T01:01:31;1.70;;;1.60;;
17372;SDS011;8803;48.116;11.590;2022-10-16T01:03:36;2.70;;;1.80;;
17372;SDS011;8803;48.116;11.590;2022-10-16T01:05:42;2.23;;;1.97;;
17372;SDS011;8803;48.116;11.590;2022-10-16T01:07:49;2.60;;;1.80;;
17372;SDS011;8803;48.116;11.590;2022-10-16T01:10:05;1.87;;;1.77;;
17372;SDS011;8803;48.116;11.590;2022-10-16T01:12:14;2.10;;;1.90;;
17372;SDS011;8803;48.116;11.590;2022-10-16T01:14:22;2.57;;;2.17;;
17372;SDS011;8803;48.116;11.590;2022-10-16T01:16:38;4.50;;;2.10;;
17372;SDS011;8803;48.116;11.590;2022-10-16T01:18:51;2.00;;;1.90;;
17372;SDS011;8803;48.116;11.590;2022-10-16T01:20:58;2.27;;;2.07;;
17372;SDS011;8803;48.116;11.590;2022-10-16T01:23:09;2.03;;;1.80;;
17372;SDS011;8803;48.116;11.590;2022-10-16T01:25:19;1.83;;;1.73;;
17372;SDS011;8803;48.116;11.590;2022-10-16T01:27:32;1.90;;;1.70;;
17372;SDS011;8803;48.116;11.590;2022-10-16T01:29:39;2.53;;;1.70;;
17372;SDS011;8803;48.116;11.590;2022-10-16T01:31:54;2.10;;;1.90;;
17372;SDS011;8803;48.116;11.590;2022-10-16T01:36:13;1.97;;;1.80;;
17372;SDS011;8803;48.116;11.590;2022-10-16T01:38:19;1.93;;;1.73;;
17372;SDS011;8803;48.116;11.590;2022-10-16T01:40:34;2.60;;;1.73;;
17372;SDS011;8803;48.116;11.590;2022-10-16T01:42:40;1.67;;;1.57;;
17372;SDS011;8803;48.116;11.590;2022-10-16T01:44:46;1.67;;;1.50;;
17372;SDS011;8803;48.116;11.590;2022-10-16T01:49:06;3.00;;;1.60;;
17372;SDS011;8803;48.116;11.590;2022-10-16T01:51:13;2.20;;;2.00;;
17372;SDS011;8803;48.116;11.590;2022-10-16T01:53:19;1.80;;;1.70;;
17372;SDS011;8803;48.116;11.590;2022-10-16T01:55:25;1.67;;;1.57;;
17372;SDS011;8803;48.116;11.590;2022-10-16T01:57:31;1.67;;;1.50;;
17372;SDS011;8803;48.116;11.590;2022-10-16T01:59:45;1.80;;;1.47;;
17372;SDS011;8803;48.116;11.590;2022-10-16T02:01:52;2.70;;;1.80;;
17372;SDS011;8803;48.116;11.590;2022-10-16T02:04:07;2.37;;;1.60;;
17372;SDS011;8803;48.116;11.590;2022-10-16T02:06:13;1.60;;;1.50;;
17372;SDS011;8803;48.116;11.590;2022-10-16T02:08:28;2.00;;;1.60;;
17372;SDS011;8803;48.116;11.590;2022-10-16T02:10:33;5.00;;;2.43;;
17372;SDS011;8803;48.116;11.590;2022-10-16T02:12:48;2.10;;;1.90;;
17372;SDS011;8803;48.116;11.590;2022-10-16T02:14:54;2.43;;;1.80;;
17372;SDS011;8803;48.116;11.590;2022-10-16T02:16:58;2.30;;;2.10;;
17372;SDS011;8803;48.116;11.590;2022-10-16T02:19:02;3.10;;;1.70;;
17372;SDS011;8803;48.116;11.590;2022-10-16T02:21:16;1.53;;;1.43;;
17372;SDS011;8803;48.116;11.590;2022-10-16T02:23:33;1.63;;;1.50;;
17372;SDS011;8803;48.116;11.590;2022-10-16T02:25:40;2.10;;;1.40;;
17372;SDS011;8803;48.116;11.590;2022-10-16T02:27:56;1.80;;;1.60;;
17372;SDS011;8803;48.116;11.590;2022-10-16T02:30:04;1.30;;;1.20;;
17372;SDS011;8803;48.116;11.590;2022-10-16T02:32:18;2.37;;;1.50;;
17372;SDS011;8803;48.116;11.590;2022-10-16T02:34:24;1.80;;;1.40;;
17372;SDS011;8803;48.116;11.590;2022-10-16T02:36:30;2.03;;;1.83;;
17372;SDS011;8803;48.116;11.590;2022-10-16T02:38:34;1.73;;;1.53;;
17372;SDS011;8803;48.116;11.590;2022-10-16T02:40:47;1.47;;;1.37;;
17372;SDS011;8803;48.116;11.590;2022-10-16T02:42:52;1.70;;;1.60;;
17372;SDS011;8803;48.116;11.590;2022-10-16T02:44:57;1.83;;;1.47;;
17372;SDS011;8803;48.116;11.590;2022-10-16T02:47:00;1.50;;;1.40;;
17372;SDS011;8803;48.116;11.590;2022-10-16T02:49:15;1.40;;;1.30;;
17372;SDS011;8803;48.116;11.590;2022-10-16T02:51:19;1.87;;;1.37;;
17372;SDS011;8803;48.116;11.590;2022-10-16T02:53:23;3.40;;;1.40;;
17372;SDS011;8803;48.116;11.590;2022-10-16T02:55:27;1.57;;;1.43;;
17372;SDS011;8803;48.116;11.590;2022-10-16T02:57:31;1.47;;;1.20;;
17372;SDS011;8803;48.116;11.590;2022-10-16T02:59:43;1.30;;;1.20;;
17372;SDS011;8803;48.116;11.590;2022-10-16T03:01:47;1.20;;;1.10;;
17372;SDS011;8803;48.116;11.590;2022-10-16T03:04:00;1.73;;;1.50;;
17372;SDS011;8803;48.116;11.590;2022-10-16T03:06:04;1.47;;;1.37;;
17372;SDS011;8803;48.116;11.590;2022-10-16T03:08:16;1.63;;;1.20;;
17372;SDS011;8803;48.116;11.590;2022-10-16T03:10:22;2.00;;;1.27;;
17372;SDS011;8803;48.116;11.590;2022-10-16T03:12:35;1.90;;;1.40;;
17372;SDS011;8803;48.116;11.590;2022-10-16T03:14:39;1.20;;;1.10;;
17372;SDS011;8803;48.116;11.590;2022-10-16T03:18:54;1.50;;;1.30;;
17372;SDS011;8803;48.116;11.590;2022-10-16T03:21:07;1.60;;;1.50;;
17372;SDS011;8803;48.116;11.590;2022-10-16T03:23:11;2.00;;;1.50;;
17372;SDS011;8803;48.116;11.590;2022-10-16T03:25:15;1.30;;;1.20;;
17372;SDS011;8803;48.116;11.590;2022-10-16T03:27:27;1.57;;;1.47;;
17372;SDS011;8803;48.116;11.590;2022-10-16T03:29:31;1.67;;;1.33;;
17372;SDS011;8803;48.116;11.590;2022-10-16T03:31:46;2.00;;;1.20;;
17372;SDS011;8803;48.116;11.590;2022-10-16T03:33:50;2.40;;;1.60;;
17372;SDS011;8803;48.116;11.590;2022-10-16T03:36:03;2.13;;;1.30;;
17372;SDS011;8803;48.116;11.590;2022-10-16T03:38:07;1.70;;;1.57;;
17372;SDS011;8803;48.116;11.590;2022-10-16T03:40:20;1.47;;;1.37;;
17372;SDS011;8803;48.116;11.590;2022-10-16T03:42:24;1.50;;;1.40;;
17372;SDS011;8803;48.116;11.590;2022-10-16T03:44:27;1.80;;;1.70;;
17372;SDS011;8803;48.116;11.590;2022-10-16T03:46:31;1.80;;;1.70;;
17372;SDS011;8803;48.116;11.590;2022-10-16T03:48:35;2.30;;;1.60;;
17372;SDS011;8803;48.116;11.590;2022-10-16T03:50:48;1.93;;;1.77;;
17372;SDS011;8803;48.116;11.590;2022-10-16T03:52:53;2.07;;;1.50;;
17372;SDS011;8803;48.116;11.590;2022-10-16T03:54:57;1.50;;;1.40;;
17372;SDS011;8803;48.116;11.590;2022-10-16T03:59:12;1.70;;;1.40;;
17372;SDS011;8803;48.116;11.590;2022-10-16T04:01:16;1.90;;;1.50;;
17372;SDS011;8803;48.116;11.590;2022-10-16T04:03:19;1.60;;;1.50;;
17372;SDS011;8803;48.116;11.590;2022-10-16T04:05:32;3.47;;;1.60;;
17372;SDS011;8803;48.116;11.590;2022-10-16T04:07:36;1.80;;;1.70;;
17372;SDS011;8803;48.116;11.590;2022-10-16T04:09:48;1.80;;;1.70;;
17372;SDS011;8803;48.116;11.590;2022-10-16T04:11:53;2.77;;;1.73;;
17372;SDS011;8803;48.116;11.590;2022-10-16T04:13:56;1.73;;;1.63;;
17372;SDS011;8803;48.116;11.590;2022-10-16T04:18:12;2.40;;;1.50;;
17372;SDS011;8803;48.116;11.590;2022-10-16T04:20:16;1.53;;;1.43;;
17372;SDS011;8803;48.116;11.590;2022-10-16T04:22:29;1.63;;;1.50;;
17372;SDS011;8803;48.116;11.590;2022-10-16T04:24:33;1.67;;;1.57;;
17372;SDS011;8803;48.116;11.590;2022-10-16T04:26:37;2.33;;;1.80;;
17372;SDS011;8803;48.116;11.590;2022-10-16T04:28:40;2.00;;;1.80;;
17372;SDS011;8803;48.116;11.590;2022-10-16T04:30:53;2.30;;;1.70;;
17372;SDS011;8803;48.116;11.590;2022-10-16T04:32:57;1.60;;;1.50;;
17372;SDS011;8803;48.116;11.590;2022-10-16T04:35:01;4.07;;;1.80;;
17372;SDS011;8803;48.116;11.590;2022-10-16T04:39:16;2.00;;;1.60;;
17372;SDS011;8803;48.116;11.590;2022-10-16T04:41:20;2.80;;;1.47;;
17372;SDS011;8803;48.116;11.590;2022-10-16T04:43:23;2.10;;;1.60;;
17372;SDS011;8803;48.116;11.590;2022-10-16T04:45:36;2.63;;;1.70;;
17372;SDS011;8803;48.116;11.590;2022-10-16T04:47:40;5.07;;;1.70;;
17372;SDS011;8803;48.116;11.590;2022-10-16T04:49:52;1.83;;;1.70;;
17372;SDS011;8803;48.116;11.590;2022-10-16T04:51:57;1.50;;;1.40;;
17372;SDS011;8803;48.116;11.590;2022-10-16T04:54:01;3.43;;;1.70;;
17372;SDS011;8803;48.116;11.590;2022-10-16T04:56:14;2.07;;;1.87;;
17372;SDS011;8803;48.116;11.590;2022-10-16T04:58:18;3.40;;;2.33;;
17372;SDS011;8803;48.116;11.590;2022-10-16T05:00:30;2.57;;;2.37;;
17372;SDS011;8803;48.116;11.590;2022-10-16T05:02:34;3.23;;;2.03;;
17372;SDS011;8803;48.116;11.590;2022-10-16T05:04:38;4.10;;;1.97;;
17372;SDS011;8803;48.116;11.590;2022-10-16T05:08:53;2.10;;;1.70;;
17372;SDS011;8803;48.116;11.590;2022-10-16T05:10:57;1.90;;;1.50;;
17372;SDS011;8803;48.116;11.590;2022-10-16T05:13:00;1.90;;;1.70;;
17372;SDS011;8803;48.116;11.590;2022-10-16T05:15:06;1.60;;;1.50;;
17372;SDS011;8803;48.116;11.590;2022-10-16T05:17:11;1.90;;;1.70;;
17372;SDS011;8803;48.116;11.590;2022-10-16T05:19:25;2.57;;;1.53;;
17372;SDS011;8803;48.116;11.590;2022-10-16T05:21:29;2.03;;;1.80;;
17372;SDS011;8803;48.116;11.590;2022-10-16T05:23:33;2.30;;;1.93;;
17372;SDS011;8803;48.116;11.590;2022-10-16T05:25:37;1.60;;;1.50;;
17372;SDS011;8803;48.116;11.590;2022-10-16T05:27:40;1.70;;;1.60;;
17372;SDS011;8803;48.116;11.590;2022-10-16T05:29:53;2.13;;;1.80;;
17372;SDS011;8803;48.116;11.590;2022-10-16T05:31:57;2.57;;;1.77;;
17372;SDS011;8803;48.116;11.590;2022-10-16T05:34:01;2.13;;;1.77;;
17372;SDS011;8803;48.116;11.590;2022-10-16T05:36:05;1.60;;;1.50;;
17372;SDS011;8803;48.116;11.590;2022-10-16T05:38:18;1.70;;;1.60;;
17372;SDS011;8803;48.116;11.590;2022-10-16T05:40:22;1.80;;;1.70;;
17372;SDS011;8803;48.116;11.590;2022-10-16T05:42:35;1.70;;;1.50;;
17372;SDS011;8803;48.116;11.590;2022-10-16T05:44:39;1.93;;;1.83;;
17372;SDS011;8803;48.116;11.590;2022-10-16T05:46:42;2.13;;;1.93;;
17372;SDS011;8803;48.116;11.590;2022-10-16T05:48:55;4.00;;;2.70;;
17372;SDS011;8803;48.116;11.590;2022-10-16T05:50:59;3.80;;;2.83;;
17372;SDS011;8803;48.116;11.590;2022-10-16T05:53:12;3.20;;;2.90;;
17372;SDS011;8803;48.116;11.590;2022-10-16T05:55:15;2.87;;;2.67;;
17372;SDS011;8803;48.116;11.590;2022-10-16T05:57:19;2.27;;;2.07;;
17372;SDS011;8803;48.116;11.590;2022-10-16T05:59:32;2.80;;;2.40;;
17372;SDS011;8803;48.116;11.590;2022-10-16T06:01:36;3.13;;;2.07;;
17372;SDS011;8803;48.116;11.590;2022-10-16T06:03:40;2.13;;;1.93;;
17372;SDS011;8803;48.116;11.590;2022-10-16T06:05:44;3.07;;;2.40;;
17372;SDS011;8803;48.116;11.590;2022-10-16T06:07:58;2.30;;;2.10;;
17372;SDS011;8803;48.116;11.590;2022-10-16T06:10:02;2.13;;;1.93;;
17372;SDS011;8803;48.116;11.590;2022-10-16T06:12:14;2.40;;;2.20;;
17372;SDS011;8803;48.116;11.590;2022-10-16T06:14:18;2.50;;;2.30;;
17372;SDS011;8803;48.116;11.590;2022-10-16T06:16:22;2.97;;;2.43;;
17372;SDS011;8803;48.116;11.590;2022-10-16T06:18:38;3.17;;;2.87;;
17372;SDS011;8803;48.116;11.590;2022-10-16T06:20:42;4.13;;;3.23;;
17372;SDS011;8803;48.116;11.590;2022-10-16T06:22:55;2.60;;;2.40;;
17372;SDS011;8803;48.116;11.590;2022-10-16T06:24:58;2.83;;;2.53;;
17372;SDS011;8803;48.116;11.590;2022-10-16T06:27:03;2.00;;;1.90;;
17372;SDS011;8803;48.116;11.590;2022-10-16T06:29:17;2.20;;;2.00;;
17372;SDS011;8803;48.116;11.590;2022-10-16T06:31:21;2.30;;;2.10;;
17372;SDS011;8803;48.116;11.590;2022-10-16T06:33:28;4.23;;;2.30;;
17372;SDS011;8803;48.116;11.590;2022-10-16T06:35:40;2.43;;;2.23;;
17372;SDS011;8803;48.116;11.590;2022-10-16T06:37:44;2.33;;;2.13;;
17372;SDS011;8803;48.116;11.590;2022-10-16T06:39:57;2.03;;;1.83;;
17372;SDS011;8803;48.116;11.590;2022-10-16T06:42:01;2.83;;;2.27;;
17372;SDS011;8803;48.116;11.590;2022-10-16T06:44:06;2.20;;;2.00;;
17372;SDS011;8803;48.116;11.590;2022-10-16T06:46:10;2.67;;;2.00;;
17372;SDS011;8803;48.116;11.590;2022-10-16T06:48:14;2.03;;;1.80;;
17372;SDS011;8803;48.116;11.590;2022-10-16T06:50:29;2.20;;;2.00;;
17372;SDS011;8803;48.116;11.590;2022-10-16T06:52:33;2.50;;;2.30;;
17372;SDS011;8803;48.116;11.590;2022-10-16T06:54:37;2.20;;;2.00;;
17372;SDS011;8803;48.116;11.590;2022-10-16T06:56:50;2.40;;;2.20;;
17372;SDS011;8803;48.116;11.590;2022-10-16T06:58:55;2.70;;;2.10;;
17372;SDS011;8803;48.116;11.590;2022-10-16T07:03:10;2.27;;;2.07;;
17372;SDS011;8803;48.116;11.590;2022-10-16T07:05:14;2.37;;;2.17;;
17372;SDS011;8803;48.116;11.590;2022-10-16T07:07:18;2.50;;;2.30;;
17372;SDS011;8803;48.116;11.590;2022-10-16T07:09:31;2.37;;;2.00;;
17372;SDS011;8803;48.116;11.590;2022-10-16T07:11:35;2.40;;;2.20;;
17372;SDS011;8803;48.116;11.590;2022-10-16T07:13:40;2.50;;;2.30;;
17372;SDS011;8803;48.116;11.590;2022-10-16T07:15:54;2.40;;;2.20;;
17372;SDS011;8803;48.116;11.590;2022-10-16T07:17:57;2.20;;;2.00;;
17372;SDS011;8803;48.116;11.590;2022-10-16T07:20:10;2.30;;;2.10;;
17372;SDS011;8803;48.116;11.590;2022-10-16T07:22:14;2.23;;;2.03;;
17372;SDS011;8803;48.116;11.590;2022-10-16T07:24:18;2.87;;;2.67;;
17372;SDS011;8803;48.116;11.590;2022-10-16T07:26:22;2.40;;;2.20;;
17372;SDS011;8803;48.116;11.590;2022-10-16T07:28:34;2.60;;;2.20;;
17372;SDS011;8803;48.116;11.590;2022-10-16T07:30:38;2.40;;;2.20;;
17372;SDS011;8803;48.116;11.590;2022-10-16T07:32:55;2.30;;;2.10;;
17372;SDS011;8803;48.116;11.590;2022-10-16T07:34:59;2.60;;;2.40;;
17372;SDS011;8803;48.116;11.590;2022-10-16T07:37:03;2.50;;;2.30;;
17372;SDS011;8803;48.116;11.590;2022-10-16T07:39:15;3.00;;;2.50;;
17372;SDS011;8803;48.116;11.590;2022-10-16T07:41:19;2.20;;;1.90;;
17372;SDS011;8803;48.116;11.590;2022-10-16T07:43:23;4.70;;;2.63;;
17372;SDS011;8803;48.116;11.590;2022-10-16T07:45:27;2.47;;;2.20;;
17372;SDS011;8803;48.116;11.590;2022-10-16T07:47:39;2.47;;;2.27;;
17372;SDS011;8803;48.116;11.590;2022-10-16T07:49:43;2.63;;;2.40;;
17372;SDS011;8803;48.116;11.590;2022-10-16T07:51:56;2.30;;;2.10;;
17372;SDS011;8803;48.116;11.590;2022-10-16T07:54:00;2.50;;;2.30;;
17372;SDS011;8803;48.116;11.590;2022-10-16T07:56:05;3.43;;;2.50;;
17372;SDS011;8803;48.116;11.590;2022-10-16T07:58:09;2.60;;;2.30;;
17372;SDS011;8803;48.116;11.590;2022-10-16T08:00:22;2.40;;;2.20;;
17372;SDS011;8803;48.116;11.590;2022-10-16T08:02:26;2.20;;;2.00;;
17372;SDS011;8803;48.116;11.590;2022-10-16T08:04:29;2.07;;;1.90;;
17372;SDS011;8803;48.116;11.590;2022-10-16T08:06:35;2.00;;;1.80;;
17372;SDS011;8803;48.116;11.590;2022-10-16T08:08:40;4.30;;;2.13;;
17372;SDS011;8803;48.116;11.590;2022-10-16T08:10:53;2.37;;;1.90;;
17372;SDS011;8803;48.116;11.590;2022-10-16T08:12:57;2.30;;;2.03;;
17372;SDS011;8803;48.116;11.590;2022-10-16T08:15:00;3.07;;;2.27;;
17372;SDS011;8803;48.116;11.590;2022-10-16T08:17:04;2.17;;;1.80;;
17372;SDS011;8803;48.116;11.590;2022-10-16T08:19:18;2.10;;;1.90;;
17372;SDS011;8803;48.116;11.590;2022-10-16T08:21:22;2.33;;;1.87;;
17372;SDS011;8803;48.116;11.590;2022-10-16T08:23:26;1.90;;;1.70;;
17372;SDS011;8803;48.116;11.590;2022-10-16T08:25:39;2.27;;;1.90;;
17372;SDS011;8803;48.116;11.590;2022-10-16T08:27:44;4.30;;;2.33;;
17372;SDS011;8803;48.116;11.590;2022-10-16T08:29:57;2.90;;;2.23;;
17372;SDS011;8803;48.116;11.590;2022-10-16T08:32:03;2.53;;;2.30;;
17372;SDS011;8803;48.116;11.590;2022-10-16T08:34:07;2.87;;;2.30;;
17372;SDS011;8803;48.116;11.590;2022-10-16T08:36:12;2.93;;;2.70;;
17372;SDS011;8803;48.116;11.590;2022-10-16T08:38:25;2.73;;;2.53;;
17372;SDS011;8803;48.116;11.590;2022-10-16T08:40:29;3.67;;;2.80;;
17372;SDS011;8803;48.116;11.590;2022-10-16T08:42:49;2.97;;;2.13;;
17372;SDS011;8803;48.116;11.590;2022-10-16T08:45:09;2.67;;;2.10;;
17372;SDS011;8803;48.116;11.590;2022-10-16T08:47:25;3.27;;;1.60;;
17372;SDS011;8803;48.116;11.590;2022-10-16T08:49:31;1.90;;;1.70;;
17372;SDS011;8803;48.116;11.590;2022-10-16T08:51:35;2.67;;;1.80;;
17372;SDS011;8803;48.116;11.590;2022-10-16T08:53:49;1.67;;;1.57;;
17372;SDS011;8803;48.116;11.590;2022-10-16T08:55:56;3.17;;;2.00;;
17372;SDS011;8803;48.116;11.590;2022-10-16T08:58:00;2.10;;;1.90;;
17372;SDS011;8803;48.116;11.590;2022-10-16T09:00:15;2.27;;;1.97;;
17372;SDS011;8803;48.116;11.590;2022-10-16T09:02:24;2.13;;;1.93;;
17372;SDS011;8803;48.116;11.590;2022-10-16T09:04:46;1.80;;;1.57;;
17372;SDS011;8803;48.116;11.590;2022-10-16T09:06:56;2.20;;;2.00;;
17372;SDS011;8803;48.116;11.590;2022-10-16T09:09:20;1.90;;;1.80;;
17372;SDS011;8803;48.116;11.590;2022-10-16T09:11:33;2.10;;;1.90;;
17372;SDS011;8803;48.116;11.590;2022-10-16T09:13:43;2.00;;;1.87;;
17372;SDS011;8803;48.116;11.590;2022-10-16T09:16:01;1.80;;;1.70;;
17372;SDS011;8803;48.116;11.590;2022-10-16T09:18:12;1.80;;;1.70;;
17372;SDS011;8803;48.116;11.590;2022-10-16T09:20:29;1.93;;;1.60;;
17372;SDS011;8803;48.116;11.590;2022-10-16T09:22:35;1.90;;;1.70;;
17372;SDS011;8803;48.116;11.590;2022-10-16T09:24:39;2.63;;;2.00;;
17372;SDS011;8803;48.116;11.590;2022-10-16T09:26:43;1.80;;;1.70;;
17372;SDS011;8803;48.116;11.590;2022-10-16T09:28:47;2.50;;;2.00;;
17372;SDS011;8803;48.116;11.590;2022-10-16T09:30:59;1.87;;;1.60;;
17372;SDS011;8803;48.116;11.590;2022-10-16T09:33:03;1.90;;;1.80;;
17372;SDS011;8803;48.116;11.590;2022-10-16T09:35:11;1.60;;;1.40;;
17372;SDS011;8803;48.116;11.590;2022-10-16T09:37:18;1.90;;;1.80;;
17372;SDS011;8803;48.116;11.590;2022-10-16T09:39:41;1.90;;;1.80;;
17372;SDS011;8803;48.116;11.590;2022-10-16T09:41:47;1.53;;;1.43;;
17372;SDS011;8803;48.116;11.590;2022-10-16T09:43:53;2.63;;;1.37;;
17372;SDS011;8803;48.116;11.590;2022-10-16T09:45:59;1.50;;;1.40;;
17372;SDS011;8803;48.116;11.590;2022-10-16T09:48:10;1.60;;;1.50;;
17372;SDS011;8803;48.116;11.590;2022-10-16T09:50:24;1.80;;;1.60;;
17372;SDS011;8803;48.116;11.590;2022-10-16T09:52:29;1.97;;;1.77;;
17372;SDS011;8803;48.116;11.590;2022-10-16T09:54:34;1.80;;;1.57;;
17372;SDS011;8803;48.116;11.590;2022-10-16T09:56:38;2.17;;;1.77;;
17372;SDS011;8803;48.116;11.590;2022-10-16T09:58:42;2.63;;;1.77;;
17372;SDS011;8803;48.116;11.590;2022-10-16T10:00:55;2.53;;;1.60;;
17372;SDS011;8803;48.116;11.590;2022-10-16T10:02:59;1.27;;;1.17;;
17372;SDS011;8803;48.116;11.590;2022-10-16T10:05:04;1.40;;;1.30;;
17372;SDS011;8803;48.116;11.590;2022-10-16T10:07:16;1.97;;;1.80;;
17372;SDS011;8803;48.116;11.590;2022-10-16T10:09:30;1.87;;;1.70;;
17372;SDS011;8803;48.116;11.590;2022-10-16T10:11:44;1.90;;;1.77;;
17372;SDS011;8803;48.116;11.590;2022-10-16T10:13:50;2.00;;;1.80;;
17372;SDS011;8803;48.116;11.590;2022-10-16T10:15:54;1.70;;;1.60;;
17372;SDS011;8803;48.116;11.590;2022-10-16T10:17:58;1.90;;;1.80;;
17372;SDS011;8803;48.116;11.590;2022-10-16T10:20:21;2.53;;;2.03;;
17372;SDS011;8803;48.116;11.590;2022-10-16T10:22:27;1.90;;;1.80;;
17372;SDS011;8803;48.116;11.590;2022-10-16T10:24:33;4.23;;;2.30;;
17372;SDS011;8803;48.116;11.590;2022-10-16T10:26:37;2.17;;;2.07;;
17372;SDS011;8803;48.116;11.590;2022-10-16T10:28:49;2.23;;;2.03;;
17372;SDS011;8803;48.116;11.590;2022-10-16T10:31:08;1.60;;;1.50;;
17372;SDS011;8803;48.116;11.590;2022-10-16T10:33:17;1.93;;;1.53;;
17372;SDS011;8803;48.116;11.590;2022-10-16T10:35:33;3.80;;;1.60;;
17372;SDS011;8803;48.116;11.590;2022-10-16T10:37:46;1.77;;;1.67;;
17372;SDS011;8803;48.116;11.590;2022-10-16T10:40:04;3.00;;;1.40;;
17372;SDS011;8803;48.116;11.590;2022-10-16T10:42:14;2.10;;;1.63;;
17372;SDS011;8803;48.116;11.590;2022-10-16T10:44:25;1.67;;;1.57;;
17372;SDS011;8803;48.116;11.590;2022-10-16T10:46:35;1.93;;;1.80;;
17372;SDS011;8803;48.116;11.590;2022-10-16T10:48:53;2.07;;;1.87;;
17372;SDS011;8803;48.116;11.590;2022-10-16T10:51:08;3.80;;;1.90;;
17372;SDS011;8803;48.116;11.590;2022-10-16T10:53:24;2.30;;;1.70;;
17372;SDS011;8803;48.116;11.590;2022-10-16T10:55:40;1.70;;;1.60;;
17372;SDS011;8803;48.116;11.590;2022-10-16T10:57:52;2.13;;;1.67;;
17372;SDS011;8803;48.116;11.590;2022-10-16T11:00:18;2.00;;;1.80;;
17372;SDS011;8803;48.116;11.590;2022-10-16T11:02:26;2.20;;;2.00;;
17372;SDS011;8803;48.116;11.590;2022-10-16T11:07:26;1.50;;;1.40;;
17372;SDS011;8803;48.116;11.590;2022-10-16T11:09:40;1.77;;;1.50;;
17372;SDS011;8803;48.116;11.590;2022-10-16T11:11:48;1.40;;;1.30;;
17372;SDS011;8803;48.116;11.590;2022-10-16T11:13:55;1.33;;;1.23;;
17372;SDS011;8803;48.116;11.590;2022-10-16T11:16:10;1.87;;;1.43;;
17372;SDS011;8803;48.116;11.590;2022-10-16T11:18:17;2.70;;;1.30;;
17372;SDS011;8803;48.116;11.590;2022-10-16T11:20:31;1.47;;;1.37;;
17372;SDS011;8803;48.116;11.590;2022-10-16T11:22:37;2.00;;;1.70;;
17372;SDS011;8803;48.116;11.590;2022-10-16T11:24:45;1.40;;;1.30;;
17372;SDS011;8803;48.116;11.590;2022-10-16T11:26:50;1.47;;;1.20;;
17372;SDS011;8803;48.116;11.590;2022-10-16T11:29:05;1.47;;;1.30;;
17372;SDS011;8803;48.116;11.590;2022-10-16T11:31:14;1.97;;;1.67;;
17372;SDS011;8803;48.116;11.590;2022-10-16T11:33:23;3.83;;;1.83;;
17372;SDS011;8803;48.116;11.590;2022-10-16T11:35:36;1.50;;;1.40;;
17372;SDS011;8803;48.116;11.590;2022-10-16T11:37:43;2.40;;;2.20;;
17372;SDS011;8803;48.116;11.590;2022-10-16T11:40:03;2.03;;;1.83;;
17372;SDS011;8803;48.116;11.590;2022-10-16T11:42:11;1.87;;;1.73;;
17372;SDS011;8803;48.116;11.590;2022-10-16T11:44:27;1.30;;;1.20;;
17372;SDS011;8803;48.116;11.590;2022-10-16T11:46:40;1.10;;;1.00;;
17372;SDS011;8803;48.116;11.590;2022-10-16T11:48:56;1.10;;;1.00;;
17372;SDS011;8803;48.116;11.590;2022-10-16T11:51:05;1.13;;;1.03;;
17372;SDS011;8803;48.116;11.590;2022-10-16T11:53:21;1.30;;;1.20;;
17372;SDS011;8803;48.116;11.590;2022-10-16T11:55:34;1.33;;;1.00;;
17372;SDS011;8803;48.116;11.590;2022-10-16T11:57:42;1.20;;;1.10;;
17372;SDS011;8803;48.116;11.590;2022-10-16T11:59:57;1.30;;;1.20;;
17372;SDS011;8803;48.116;11.590;2022-10-16T12:04:21;1.37;;;1.27;;
17372;SDS011;8803;48.116;11.590;2022-10-16T12:06:30;1.60;;;1.50;;
17372;SDS011;8803;48.116;11.590;2022-10-16T12:08:44;1.77;;;1.20;;
17372;SDS011;8803;48.116;11.590;2022-10-16T12:13:04;1.03;;;0.97;;
17372;SDS011;8803;48.116;11.590;2022-10-16T12:15:27;0.80;;;0.70;;
17372;SDS011;8803;48.116;11.590;2022-10-16T12:17:35;1.27;;;0.70;;
17372;SDS011;8803;48.116;11.590;2022-10-16T12:19:57;1.23;;;0.70;;
17372;SDS011;8803;48.116;11.590;2022-10-16T12:22:02;0.60;;;0.60;;
17372;SDS011;8803;48.116;11.590;2022-10-16T12:24:06;0.73;;;0.73;;
17372;SDS011;8803;48.116;11.590;2022-10-16T12:26:27;0.60;;;0.60;;
17372;SDS011;8803;48.116;11.590;2022-10-16T12:28:40;0.97;;;0.83;;
17372;SDS011;8803;48.116;11.590;2022-10-16T12:30:51;0.70;;;0.70;;
17372;SDS011;8803;48.116;11.590;2022-10-16T12:33:04;0.70;;;0.70;;
17372;SDS011;8803;48.116;11.590;2022-10-16T12:35:17;0.93;;;0.70;;
17372;SDS011;8803;48.116;11.590;2022-10-16T12:37:23;0.80;;;0.80;;
17372;SDS011;8803;48.116;11.590;2022-10-16T12:39:37;0.80;;;0.80;;
17372;SDS011;8803;48.116;11.590;2022-10-16T12:41:41;1.00;;;0.80;;
17372;SDS011;8803;48.116;11.590;2022-10-16T12:43:45;1.10;;;0.80;;
17372;SDS011;8803;48.116;11.590;2022-10-16T12:45:59;1.10;;;0.80;;
17372;SDS011;8803;48.116;11.590;2022-10-16T12:48:17;0.80;;;0.80;;
17372;SDS011;8803;48.116;11.590;2022-10-16T12:50:32;3.10;;;0.90;;
17372;SDS011;8803;48.116;11.590;2022-10-16T12:52:37;0.80;;;0.80;;
17372;SDS011;8803;48.116;11.590;2022-10-16T12:54:42;1.10;;;1.00;;
17372;SDS011;8803;48.116;11.590;2022-10-16T12:59:02;0.70;;;0.70;;
17372;SDS011;8803;48.116;11.590;2022-10-16T13:06:17;3.57;;;0.90;;
17372;SDS011;8803;48.116;11.590;2022-10-16T13:08:28;0.83;;;0.77;;
17372;SDS011;8803;48.116;11.590;2022-10-16T13:10:45;1.50;;;0.90;;
17372;SDS011;8803;48.116;11.590;2022-10-16T13:12:56;1.43;;;1.00;;
17372;SDS011;8803;48.116;11.590;2022-10-16T13:15:23;1.00;;;0.90;;
17372;SDS011;8803;48.116;11.590;2022-10-16T13:17:37;0.83;;;0.83;;
17372;SDS011;8803;48.116;11.590;2022-10-16T13:19:45;1.33;;;1.13;;
17372;SDS011;8803;48.116;11.590;2022-10-16T13:22:00;1.30;;;1.20;;
17372;SDS011;8803;48.116;11.590;2022-10-16T13:24:10;2.60;;;1.37;;
17372;SDS011;8803;48.116;11.590;2022-10-16T13:26:19;1.10;;;1.00;;
17372;SDS011;8803;48.116;11.590;2022-10-16T13:28:34;1.43;;;0.80;;
17372;SDS011;8803;48.116;11.590;2022-10-16T13:30:41;1.13;;;0.90;;